createdAt,value
2023-01-18T00:00:19.297Z,4.80
2023-01-18T00:01:19.657Z,4.70
2023-01-18T00:02:19.280Z,4.70
2023-01-18T00:03:19.265Z,4.50
2023-01-18T00:04:19.335Z,4.10
2023-01-18T00:05:19.325Z,4.20
2023-01-18T00:06:19.306Z,3.60
2023-01-18T00:07:19.240Z,3.80
2023-01-18T00:08:19.256Z,3.90
2023-01-18T00:09:19.257Z,4.00
2023-01-18T00:10:19.364Z,4.50
2023-01-18T00:11:19.298Z,5.00
2023-01-18T00:12:19.253Z,4.40
2023-01-18T00:13:19.208Z,4.30
2023-01-18T00:14:19.155Z,4.80
2023-01-18T00:15:19.285Z,4.90
2023-01-18T00:16:19.244Z,5.30
2023-01-18T00:17:19.132Z,5.40
2023-01-18T00:18:19.253Z,4.60
2023-01-18T00:19:19.130Z,5.30
2023-01-18T00:20:19.094Z,4.40
2023-01-18T00:21:19.195Z,4.80
2023-01-18T00:22:19.083Z,5.10
2023-01-18T00:23:19.118Z,4.50
2023-01-18T00:24:19.240Z,4.20
2023-01-18T00:25:19.054Z,4.80
2023-01-18T00:26:19.049Z,4.30
2023-01-18T00:27:19.176Z,5.20
2023-01-18T00:28:19.059Z,4.90
2023-01-18T00:29:19.032Z,4.90
2023-01-18T00:30:19.123Z,3.90
2023-01-18T00:31:19.165Z,4.60
2023-01-18T00:32:18.984Z,4.00
2023-01-18T00:33:18.991Z,4.60
2023-01-18T00:34:18.984Z,4.90
2023-01-18T00:35:18.989Z,5.30
2023-01-18T00:36:18.966Z,4.80
2023-01-18T00:37:19.055Z,4.60
2023-01-18T00:38:18.927Z,5.20
2023-01-18T00:39:19.027Z,5.10
2023-01-18T00:40:18.914Z,4.60
2023-01-18T00:41:19.055Z,5.80
2023-01-18T00:42:18.900Z,5.60
2023-01-18T00:43:18.895Z,5.10
2023-01-18T00:44:18.994Z,5.70
2023-01-18T00:45:18.883Z,5.50
2023-01-18T00:46:18.872Z,5.20
2023-01-18T00:47:19.131Z,4.70
2023-01-18T00:48:18.854Z,4.70
2023-01-18T00:49:18.849Z,6.20
2023-01-18T00:50:18.919Z,5.40
2023-01-18T00:51:18.830Z,5.30
2023-01-18T00:52:18.802Z,4.50
2023-01-18T00:53:18.817Z,4.80
2023-01-18T00:54:18.834Z,5.10
2023-01-18T00:55:18.773Z,5.10
2023-01-18T00:56:18.782Z,4.60
2023-01-18T00:57:18.968Z,4.90
2023-01-18T00:58:18.741Z,4.40
2023-01-18T00:59:18.757Z,4.70
2023-01-18T01:00:18.867Z,5.00
2023-01-18T01:01:18.892Z,4.50
2023-01-18T01:02:18.780Z,5.10
2023-01-18T01:03:18.846Z,4.40
2023-01-18T01:04:18.699Z,4.80
2023-01-18T01:05:18.705Z,4.00
2023-01-18T01:06:18.826Z,4.90
2023-01-18T01:07:18.671Z,4.50
2023-01-18T01:08:18.781Z,5.10
2023-01-18T01:09:18.724Z,3.50
2023-01-18T01:10:18.629Z,4.40
2023-01-18T01:11:18.636Z,4.40
2023-01-18T01:12:18.718Z,4.20
2023-01-18T01:13:18.609Z,4.70
2023-01-18T01:14:18.609Z,4.10
2023-01-18T01:15:18.620Z,4.10
2023-01-18T01:16:18.682Z,4.60
2023-01-18T01:17:18.570Z,5.20
2023-01-18T01:18:18.572Z,4.40
2023-01-18T01:19:18.685Z,3.60
2023-01-18T01:20:18.540Z,4.30
2023-01-18T01:21:18.595Z,4.60
2023-01-18T01:22:18.645Z,4.10
2023-01-18T01:23:18.507Z,3.70
2023-01-18T01:24:18.499Z,4.80
2023-01-18T01:25:18.594Z,4.30
2023-01-18T01:26:18.488Z,3.60
2023-01-18T01:27:18.496Z,3.60
2023-01-18T01:28:18.593Z,3.30
2023-01-18T01:29:18.473Z,4.00
2023-01-18T01:30:18.475Z,3.90
2023-01-18T01:31:18.544Z,3.40
2023-01-18T01:32:18.429Z,4.20
2023-01-18T01:33:18.426Z,4.00
2023-01-18T01:34:18.520Z,3.30
2023-01-18T01:35:18.414Z,3.50
2023-01-18T01:36:18.398Z,3.10
2023-01-18T01:37:18.453Z,3.10
2023-01-18T01:38:18.376Z,3.40
2023-01-18T01:39:18.409Z,3.00
2023-01-18T01:40:18.498Z,3.20
2023-01-18T01:41:18.384Z,3.80
2023-01-18T01:42:18.360Z,3.80
2023-01-18T01:43:18.451Z,3.40
2023-01-18T01:44:18.316Z,3.40
2023-01-18T01:45:18.384Z,5.30
2023-01-18T01:46:18.381Z,6.80
2023-01-18T01:47:18.287Z,5.70
2023-01-18T01:48:18.296Z,7.70
2023-01-18T01:49:18.400Z,9.00
2023-01-18T01:50:18.263Z,8.30
2023-01-18T01:51:18.264Z,6.20
2023-01-18T01:52:18.373Z,5.10
2023-01-18T01:53:18.238Z,3.50
2023-01-18T01:54:18.230Z,3.90
2023-01-18T01:55:18.360Z,4.50
2023-01-18T01:56:18.217Z,5.00
2023-01-18T01:57:18.210Z,5.00
2023-01-18T01:58:18.298Z,4.20
2023-01-18T01:59:18.183Z,4.00
2023-01-18T02:00:18.171Z,4.10
2023-01-18T02:02:52.757Z,4.00
2023-01-18T02:03:53.676Z,3.70
2023-01-18T02:04:53.948Z,3.80
2023-01-18T02:05:53.637Z,4.90
2023-01-18T02:06:53.657Z,4.70
2023-01-18T02:07:53.635Z,3.40
2023-01-18T02:08:53.634Z,4.30
2023-01-18T02:09:53.679Z,3.90
2023-01-18T02:10:53.597Z,3.90
2023-01-18T02:11:53.600Z,4.00
2023-01-18T02:12:53.578Z,4.20
2023-01-18T02:13:53.584Z,3.70
2023-01-18T02:14:53.544Z,4.40
2023-01-18T02:15:53.645Z,3.80
2023-01-18T02:16:53.621Z,4.00
2023-01-18T02:17:53.515Z,4.40
2023-01-18T02:18:53.599Z,3.30
2023-01-18T02:19:53.513Z,3.50
2023-01-18T02:20:53.479Z,3.70
2023-01-18T02:22:00.050Z,3.40
2023-01-18T02:22:53.439Z,3.30
2023-01-18T02:23:53.463Z,3.40
2023-01-18T02:24:53.399Z,3.20
2023-01-18T02:25:53.459Z,3.80
2023-01-18T02:26:53.407Z,3.80
2023-01-18T02:27:53.498Z,4.60
2023-01-18T02:28:53.366Z,4.00
2023-01-18T02:29:53.370Z,4.00
2023-01-18T02:30:53.392Z,4.40
2023-01-18T02:31:53.357Z,3.80
2023-01-18T02:32:53.388Z,2.90
2023-01-18T02:33:53.329Z,3.40
2023-01-18T02:34:53.316Z,4.00
2023-01-18T02:35:53.306Z,3.70
2023-01-18T02:36:53.322Z,5.00
2023-01-18T02:37:53.283Z,4.40
2023-01-18T02:38:53.328Z,3.90
2023-01-18T02:39:53.301Z,4.40
2023-01-18T02:40:53.252Z,3.80
2023-01-18T02:41:53.266Z,4.30
2023-01-18T02:42:53.246Z,3.70
2023-01-18T02:43:53.242Z,3.60
2023-01-18T02:44:53.231Z,3.90
2023-01-18T02:45:53.294Z,3.50
2023-01-18T02:46:53.196Z,3.70
2023-01-18T02:47:53.200Z,4.30
2023-01-18T02:48:53.205Z,3.70
2023-01-18T02:49:53.165Z,3.50
2023-01-18T02:50:53.204Z,4.00
2023-01-18T02:51:53.180Z,3.20
2023-01-18T02:52:53.136Z,3.90
2023-01-18T02:53:53.120Z,3.80
2023-01-18T02:54:53.138Z,4.40
2023-01-18T02:55:53.108Z,3.60
2023-01-18T02:56:53.159Z,3.50
2023-01-18T02:57:53.100Z,3.30
2023-01-18T02:58:53.084Z,4.20
2023-01-18T02:59:53.075Z,3.60
2023-01-18T03:00:53.155Z,2.90
2023-01-18T03:01:53.082Z,3.00
2023-01-18T03:02:53.126Z,3.70
2023-01-18T03:03:53.032Z,4.00
2023-01-18T03:04:53.039Z,4.10
2023-01-18T03:05:53.016Z,3.90
2023-01-18T03:06:53.024Z,3.70
2023-01-18T03:07:52.988Z,3.80
2023-01-18T03:08:52.990Z,3.90
2023-01-18T03:09:52.994Z,4.20
2023-01-18T03:10:52.995Z,3.80
2023-01-18T03:11:52.954Z,3.60
2023-01-18T03:12:52.944Z,3.30
2023-01-18T03:13:52.940Z,3.50
2023-01-18T03:14:52.943Z,3.80
2023-01-18T03:15:52.965Z,3.70
2023-01-18T03:16:53.010Z,3.50
2023-01-18T03:17:52.894Z,3.70
2023-01-18T03:18:52.892Z,3.30
2023-01-18T03:19:52.891Z,3.20
2023-01-18T03:20:52.918Z,3.30
2023-01-18T03:21:52.863Z,3.20
2023-01-18T03:22:52.872Z,3.50
2023-01-18T03:23:52.844Z,3.10
2023-01-18T03:24:52.895Z,3.80
2023-01-18T03:25:52.863Z,3.70
2023-01-18T03:26:52.893Z,3.60
2023-01-18T03:27:52.806Z,3.70
2023-01-18T03:28:52.856Z,3.10
2023-01-18T03:29:52.784Z,3.40
2023-01-18T03:30:52.868Z,3.70
2023-01-18T03:31:52.799Z,4.20
2023-01-18T03:32:52.759Z,3.20
2023-01-18T03:33:52.766Z,3.90
2023-01-18T03:34:52.771Z,4.40
2023-01-18T03:35:52.762Z,4.60
2023-01-18T03:36:52.731Z,4.60
2023-01-18T03:37:52.766Z,4.30
2023-01-18T03:38:52.688Z,4.70
2023-01-18T03:39:52.692Z,4.70
2023-01-18T03:40:52.723Z,4.40
2023-01-18T03:41:52.677Z,3.70
2023-01-18T03:42:52.651Z,3.90
2023-01-18T03:43:52.812Z,3.90
2023-01-18T03:44:52.632Z,3.60
2023-01-18T03:45:52.639Z,4.00
2023-01-18T03:46:52.663Z,3.90
2023-01-18T03:47:53.756Z,3.50
2023-01-18T03:48:53.055Z,3.80
2023-01-18T03:49:52.946Z,3.90
2023-01-18T03:50:52.736Z,3.50
2023-01-18T03:51:52.570Z,3.40
2023-01-18T03:52:52.604Z,3.60
2023-01-18T03:53:52.714Z,3.60
2023-01-18T03:54:52.603Z,3.40
2023-01-18T03:55:52.536Z,4.00
2023-01-18T03:56:52.561Z,4.20
2023-01-18T03:57:52.517Z,3.40
2023-01-18T03:58:52.502Z,3.00
2023-01-18T03:59:52.530Z,3.90
2023-01-18T04:00:52.617Z,3.40
2023-01-18T04:01:52.497Z,3.70
2023-01-18T04:02:52.498Z,3.30
2023-01-18T04:03:52.475Z,3.60
2023-01-18T04:04:54.625Z,3.50
2023-01-18T04:05:52.457Z,3.60
2023-01-18T04:06:52.425Z,3.60
2023-01-18T04:07:52.446Z,3.40
2023-01-18T04:08:52.424Z,3.10
2023-01-18T04:09:52.423Z,3.50
2023-01-18T04:10:52.397Z,3.90
2023-01-18T04:11:52.385Z,3.50
2023-01-18T04:12:52.412Z,3.40
2023-01-18T04:13:54.451Z,2.90
2023-01-18T04:14:52.364Z,3.90
2023-01-18T04:15:52.416Z,3.30
2023-01-18T04:16:52.348Z,3.00
2023-01-18T04:17:52.790Z,2.80
2023-01-18T04:18:52.352Z,3.20
2023-01-18T04:19:52.314Z,2.70
2023-01-18T04:20:52.299Z,3.00
2023-01-18T04:21:52.316Z,3.30
2023-01-18T04:22:52.307Z,3.20
2023-01-18T04:23:52.337Z,3.50
2023-01-18T04:24:52.269Z,3.30
2023-01-18T04:25:52.643Z,3.40
2023-01-18T04:26:52.249Z,3.00
2023-01-18T04:27:52.239Z,2.50
2023-01-18T04:28:52.228Z,2.90
2023-01-18T04:29:52.272Z,3.40
2023-01-18T04:30:52.193Z,3.90
2023-01-18T04:31:52.193Z,2.80
2023-01-18T04:32:52.207Z,2.80
2023-01-18T04:33:52.265Z,2.80
2023-01-18T04:34:52.194Z,3.00
2023-01-18T04:35:52.162Z,3.30
2023-01-18T04:36:52.145Z,2.80
2023-01-18T04:37:52.130Z,3.80
2023-01-18T04:38:52.181Z,3.40
2023-01-18T04:39:52.133Z,3.10
2023-01-18T04:40:52.149Z,3.20
2023-01-18T04:41:52.095Z,3.60
2023-01-18T04:42:52.100Z,3.80
2023-01-18T04:43:52.089Z,4.10
2023-01-18T04:44:52.119Z,4.30
2023-01-18T04:45:52.065Z,3.80
2023-01-18T04:46:52.051Z,3.80
2023-01-18T04:47:52.040Z,3.80
2023-01-18T04:48:52.062Z,3.80
2023-01-18T04:49:52.045Z,4.00
2023-01-18T04:50:52.045Z,3.80
2023-01-18T04:51:51.997Z,3.30
2023-01-18T04:52:51.982Z,3.00
2023-01-18T04:53:51.975Z,2.90
2023-01-18T04:54:52.007Z,3.50
2023-01-18T04:55:51.963Z,4.30
2023-01-18T04:56:51.963Z,3.20
2023-01-18T04:57:51.936Z,3.80
2023-01-18T04:58:51.948Z,3.40
2023-01-18T04:59:51.913Z,3.10
2023-01-18T05:00:52.048Z,3.60
2023-01-18T05:01:51.936Z,4.00
2023-01-18T05:02:51.928Z,6.90
2023-01-18T05:03:51.887Z,6.30
2023-01-18T05:04:51.888Z,4.10
2023-01-18T05:05:51.875Z,3.60
2023-01-18T05:06:52.805Z,3.40
2023-01-18T05:07:51.849Z,4.40
2023-01-18T05:08:51.824Z,3.50
2023-01-18T05:09:51.949Z,4.40
2023-01-18T05:10:51.822Z,4.20
2023-01-18T05:11:51.871Z,2.70
2023-01-18T05:12:51.804Z,3.50
2023-01-18T05:13:51.804Z,4.60
2023-01-18T05:14:51.768Z,3.30
2023-01-18T05:15:51.987Z,4.10
2023-01-18T05:16:51.822Z,3.80
2023-01-18T05:17:51.740Z,2.60
2023-01-18T05:18:51.771Z,3.40
2023-01-18T05:19:51.757Z,3.60
2023-01-18T05:20:51.727Z,2.40
2023-01-18T05:21:51.744Z,2.70
2023-01-18T05:22:51.698Z,2.70
2023-01-18T05:23:51.721Z,2.90
2023-01-18T05:24:51.679Z,3.40
2023-01-18T05:25:51.696Z,2.70
2023-01-18T05:26:51.668Z,3.40
2023-01-18T05:27:51.669Z,3.00
2023-01-18T05:28:51.666Z,2.90
2023-01-18T05:29:51.645Z,2.90
2023-01-18T05:30:51.644Z,2.60
2023-01-18T05:31:51.721Z,2.80
2023-01-18T05:32:51.603Z,3.00
2023-01-18T05:33:51.590Z,2.20
2023-01-18T05:34:51.595Z,2.30
2023-01-18T05:35:51.585Z,2.80
2023-01-18T05:36:51.592Z,2.50
2023-01-18T05:37:51.559Z,2.90
2023-01-18T05:38:51.611Z,2.70
2023-01-18T05:39:51.539Z,2.40
2023-01-18T05:40:51.521Z,2.30
2023-01-18T05:41:51.531Z,2.70
2023-01-18T05:42:51.502Z,2.50
2023-01-18T05:43:51.521Z,3.10
2023-01-18T05:44:51.494Z,2.40
2023-01-18T05:45:51.550Z,2.40
2023-01-18T05:46:51.475Z,2.70
2023-01-18T05:47:51.461Z,2.00
2023-01-18T05:48:51.465Z,2.30
2023-01-18T05:49:51.442Z,2.20
2023-01-18T05:50:51.428Z,2.20
2023-01-18T05:51:51.469Z,2.20
2023-01-18T05:52:51.409Z,2.70
2023-01-18T05:53:51.405Z,2.50
2023-01-18T05:54:51.381Z,2.40
2023-01-18T05:55:51.387Z,2.70
2023-01-18T05:56:51.390Z,2.40
2023-01-18T05:57:51.399Z,2.50
2023-01-18T05:58:51.397Z,2.40
2023-01-18T05:59:51.358Z,2.50
2023-01-18T06:00:51.377Z,2.40
2023-01-18T06:01:51.419Z,2.20
2023-01-18T06:02:51.328Z,2.30
2023-01-18T06:03:51.324Z,2.40
2023-01-18T06:04:51.287Z,2.60
2023-01-18T06:05:51.336Z,3.20
2023-01-18T06:06:51.313Z,3.10
2023-01-18T06:07:51.268Z,2.80
2023-01-18T06:08:51.322Z,2.70
2023-01-18T06:09:51.252Z,2.50
2023-01-18T06:10:51.230Z,2.50
2023-01-18T06:11:51.281Z,2.70
2023-01-18T06:12:51.250Z,2.40
2023-01-18T06:13:51.210Z,2.10
2023-01-18T06:14:51.207Z,2.10
2023-01-18T06:15:51.197Z,2.50
2023-01-18T06:16:51.190Z,2.50
2023-01-18T06:17:51.195Z,2.20
2023-01-18T06:18:51.168Z,2.30
2023-01-18T06:19:51.209Z,2.60
2023-01-18T06:20:51.168Z,2.30
2023-01-18T06:21:51.150Z,2.60
2023-01-18T06:22:51.125Z,3.10
2023-01-18T06:23:51.116Z,4.10
2023-01-18T06:24:51.145Z,6.20
2023-01-18T06:25:51.123Z,3.40
2023-01-18T06:26:51.113Z,3.10
2023-01-18T06:27:51.079Z,4.20
2023-01-18T06:28:51.068Z,3.50
2023-01-18T06:29:51.097Z,6.00
2023-01-18T06:30:51.055Z,4.10
2023-01-18T06:31:51.055Z,6.50
2023-01-18T06:32:50.998Z,5.70
2023-01-18T06:33:50.957Z,4.60
2023-01-18T06:34:50.962Z,8.30
2023-01-18T06:35:50.972Z,10.30
2023-01-18T06:36:50.956Z,4.40
2023-01-18T06:37:50.925Z,7.00
2023-01-18T06:38:50.923Z,6.40
2023-01-18T06:39:50.902Z,7.40
2023-01-18T06:40:50.920Z,5.60
2023-01-18T06:41:50.895Z,4.00
2023-01-18T06:42:50.904Z,6.80
2023-01-18T06:43:50.900Z,6.20
2023-01-18T06:44:50.871Z,2.80
2023-01-18T06:45:52.309Z,3.70
2023-01-18T06:46:50.848Z,7.00
2023-01-18T06:47:50.824Z,7.90
2023-01-18T06:48:50.838Z,2.00
2023-01-18T06:49:50.806Z,2.70
2023-01-18T06:50:50.797Z,2.50
2023-01-18T06:51:50.841Z,4.90
2023-01-18T06:52:50.827Z,8.10
2023-01-18T06:53:50.815Z,2.80
2023-01-18T06:54:50.770Z,2.90
2023-01-18T06:55:50.750Z,2.30
2023-01-18T06:56:50.739Z,2.40
2023-01-18T06:57:50.771Z,3.00
2023-01-18T06:58:50.750Z,2.60
2023-01-18T06:59:50.704Z,2.50
2023-01-18T07:00:50.791Z,2.60
2023-01-18T07:01:50.786Z,2.80
2023-01-18T07:02:50.700Z,2.20
2023-01-18T07:03:50.738Z,2.90
2023-01-18T07:04:50.678Z,2.80
2023-01-18T07:05:50.672Z,2.30
2023-01-18T07:06:50.655Z,2.60
2023-01-18T07:07:50.636Z,2.90
2023-01-18T07:08:50.625Z,2.50
2023-01-18T07:09:50.632Z,2.50
2023-01-18T07:10:50.623Z,3.00
2023-01-18T07:11:50.600Z,2.40
2023-01-18T07:12:50.590Z,2.70
2023-01-18T07:13:50.590Z,2.40
2023-01-18T07:14:50.569Z,2.50
2023-01-18T07:15:50.556Z,2.10
2023-01-18T07:16:50.602Z,2.30
2023-01-18T07:17:50.923Z,2.00
2023-01-18T07:18:50.576Z,2.10
2023-01-18T07:19:50.551Z,2.00
2023-01-18T07:20:50.533Z,2.00
2023-01-18T07:21:50.537Z,1.90
2023-01-18T07:22:50.489Z,2.10
2023-01-18T07:23:50.475Z,2.00
2023-01-18T07:24:50.472Z,2.10
2023-01-18T07:25:50.494Z,2.00
2023-01-18T07:26:50.461Z,2.00
2023-01-18T07:27:50.450Z,2.00
2023-01-18T07:28:50.433Z,2.20
2023-01-18T07:29:50.436Z,1.90
2023-01-18T07:30:50.438Z,2.10
2023-01-18T07:31:50.447Z,2.00
2023-01-18T07:32:50.403Z,1.80
2023-01-18T07:33:50.460Z,1.80
2023-01-18T07:34:50.381Z,1.80
2023-01-18T07:35:50.365Z,1.80
2023-01-18T07:36:50.380Z,2.20
2023-01-18T07:37:50.351Z,1.70
2023-01-18T07:38:50.347Z,1.60
2023-01-18T07:39:50.337Z,1.70
2023-01-18T07:40:50.316Z,2.20
2023-01-18T07:41:50.350Z,2.90
2023-01-18T07:42:50.317Z,3.10
2023-01-18T07:43:50.300Z,2.10
2023-01-18T07:44:50.299Z,2.50
2023-01-18T07:45:50.350Z,1.80
2023-01-18T07:46:50.275Z,1.80
2023-01-18T07:47:50.278Z,2.00
2023-01-18T07:48:50.265Z,1.90
2023-01-18T07:49:50.230Z,1.50
2023-01-18T07:50:50.226Z,1.80
2023-01-18T07:51:50.230Z,1.70
2023-01-18T07:52:50.199Z,1.70
2023-01-18T07:53:50.212Z,1.80
2023-01-18T07:54:50.298Z,1.90
2023-01-18T07:55:50.172Z,2.00
2023-01-18T07:56:50.230Z,2.00
2023-01-18T07:57:50.154Z,2.10
2023-01-18T07:58:50.161Z,2.50
2023-01-18T07:59:50.133Z,1.90
2023-01-18T08:00:50.210Z,2.00
2023-01-18T08:01:50.164Z,1.60
2023-01-18T08:02:50.271Z,1.80
2023-01-18T08:03:50.135Z,1.90
2023-01-18T08:04:50.101Z,2.00
2023-01-18T08:05:50.144Z,1.90
2023-01-18T08:06:50.093Z,1.50
2023-01-18T08:07:50.078Z,1.90
2023-01-18T08:08:50.110Z,1.90
2023-01-18T08:09:50.056Z,2.20
2023-01-18T08:10:50.032Z,2.20
2023-01-18T08:11:50.066Z,2.30
2023-01-18T08:12:50.008Z,2.70
2023-01-18T08:13:50.006Z,2.20
2023-01-18T08:14:50.010Z,2.10
2023-01-18T08:15:50.344Z,1.80
2023-01-18T08:16:49.969Z,2.20
2023-01-18T08:17:50.012Z,1.70
2023-01-18T08:18:49.958Z,2.10
2023-01-18T08:19:49.961Z,1.90
2023-01-18T08:20:50.035Z,2.10
2023-01-18T08:21:49.929Z,2.00
2023-01-18T08:22:49.928Z,2.20
2023-01-18T08:23:49.923Z,2.00
2023-01-18T08:24:49.935Z,1.90
2023-01-18T08:25:49.903Z,2.00
2023-01-18T08:26:49.905Z,2.20
2023-01-18T08:27:49.866Z,2.40
2023-01-18T08:28:49.890Z,2.00
2023-01-18T08:29:49.878Z,2.30
2023-01-18T08:30:49.909Z,2.20
2023-01-18T08:31:49.833Z,2.30
2023-01-18T08:32:49.825Z,2.20
2023-01-18T08:33:49.842Z,1.60
2023-01-18T08:34:49.824Z,1.50
2023-01-18T08:35:49.803Z,1.80
2023-01-18T08:36:49.802Z,1.80
2023-01-18T08:37:49.777Z,1.70
2023-01-18T08:38:49.788Z,2.30
2023-01-18T08:39:49.780Z,1.90
2023-01-18T08:40:49.801Z,1.80
2023-01-18T08:41:49.774Z,1.10
2023-01-18T08:42:49.735Z,1.60
2023-01-18T08:43:49.713Z,1.40
2023-01-18T08:44:49.723Z,1.40
2023-01-18T08:45:49.694Z,1.60
2023-01-18T08:46:49.743Z,1.10
2023-01-18T08:47:49.702Z,1.30
2023-01-18T08:48:49.722Z,1.70
2023-01-18T08:49:49.691Z,1.20
2023-01-18T08:50:51.630Z,1.60
2023-01-18T08:51:49.642Z,1.50
2023-01-18T08:52:49.679Z,1.20
2023-01-18T08:53:49.649Z,1.90
2023-01-18T08:54:49.605Z,1.70
2023-01-18T08:55:49.617Z,1.60
2023-01-18T08:56:49.611Z,1.60
2023-01-18T08:57:49.576Z,2.00
2023-01-18T08:58:49.694Z,1.50
2023-01-18T08:59:49.585Z,1.50
2023-01-18T09:00:49.579Z,1.70
2023-01-18T09:01:49.634Z,1.40
2023-01-18T09:02:49.652Z,1.50
2023-01-18T09:03:49.541Z,1.30
2023-01-18T09:04:49.518Z,1.30
2023-01-18T09:05:49.550Z,1.10
2023-01-18T09:06:50.198Z,1.50
2023-01-18T09:07:49.480Z,1.40
2023-01-18T09:08:49.498Z,1.60
2023-01-18T09:09:49.493Z,1.40
2023-01-18T09:10:49.465Z,1.40
2023-01-18T09:11:49.451Z,1.50
2023-01-18T09:12:49.451Z,1.60
2023-01-18T09:14:00.393Z,1.50
2023-01-18T09:14:49.439Z,1.60
2023-01-18T09:15:49.432Z,1.10
2023-01-18T09:16:49.425Z,1.60
2023-01-18T09:17:49.412Z,1.40
2023-01-18T09:18:49.398Z,1.40
2023-01-18T09:19:49.390Z,1.30
2023-01-18T09:20:49.378Z,1.10
2023-01-18T09:21:49.364Z,1.30
2023-01-18T09:22:49.345Z,1.50
2023-01-18T09:23:49.387Z,1.40
2023-01-18T09:24:49.342Z,1.60
2023-01-18T09:25:49.329Z,1.40
2023-01-18T09:26:49.339Z,1.50
2023-01-18T09:27:49.297Z,1.60
2023-01-18T09:28:49.300Z,1.60
2023-01-18T09:29:49.328Z,2.30
2023-01-18T09:30:49.286Z,3.00
2023-01-18T09:31:49.493Z,2.00
2023-01-18T09:32:49.347Z,2.60
2023-01-18T09:33:53.541Z,1.70
2023-01-18T09:34:49.223Z,1.60
2023-01-18T09:35:49.272Z,1.70
2023-01-18T09:36:49.226Z,1.40
2023-01-18T09:37:49.205Z,1.70
2023-01-18T09:38:49.242Z,1.60
2023-01-18T09:39:52.763Z,1.60
2023-01-18T09:40:49.200Z,1.50
2023-01-18T09:41:49.187Z,2.20
2023-01-18T09:42:49.161Z,1.70
2023-01-18T09:43:49.163Z,1.50
2023-01-18T09:44:49.155Z,1.50
2023-01-18T09:45:49.891Z,1.60
2023-01-18T09:46:49.233Z,1.60
2023-01-18T09:47:49.096Z,1.70
2023-01-18T09:48:49.132Z,1.80
2023-01-18T09:49:49.117Z,1.70
2023-01-18T09:50:49.107Z,1.40
2023-01-18T09:51:49.095Z,1.90
2023-01-18T09:52:49.098Z,2.50
2023-01-18T09:53:49.037Z,2.00
2023-01-18T09:54:49.077Z,2.10
2023-01-18T09:55:49.046Z,1.90
2023-01-18T09:56:49.035Z,1.90
2023-01-18T09:57:49.001Z,1.80
2023-01-18T09:58:48.998Z,1.60
2023-01-18T09:59:49.018Z,2.00
2023-01-18T10:00:49.155Z,1.70
2023-01-18T10:01:49.225Z,1.70
2023-01-18T10:02:49.010Z,1.60
2023-01-18T10:03:48.942Z,1.50
2023-01-18T10:04:48.961Z,1.40
2023-01-18T10:05:48.948Z,1.60
2023-01-18T10:06:48.962Z,1.30
2023-01-18T10:07:48.903Z,1.80
2023-01-18T10:08:48.930Z,1.50
2023-01-18T10:09:48.883Z,1.40
2023-01-18T10:10:48.880Z,1.40
2023-01-18T10:11:48.864Z,1.40
2023-01-18T10:12:48.866Z,1.50
2023-01-18T10:13:48.899Z,1.70
2023-01-18T10:14:48.859Z,1.50
2023-01-18T10:15:48.823Z,1.60
2023-01-18T10:16:48.814Z,2.00
2023-01-18T10:17:48.818Z,1.80
2023-01-18T10:18:48.829Z,1.60
2023-01-18T10:19:48.793Z,1.50
2023-01-18T10:20:48.802Z,1.60
2023-01-18T10:21:48.761Z,1.60
2023-01-18T10:22:48.769Z,2.00
2023-01-18T10:23:48.752Z,1.70
2023-01-18T10:24:48.737Z,1.50
2023-01-18T10:25:48.778Z,1.50
2023-01-18T10:26:48.722Z,2.00
2023-01-18T10:27:48.709Z,1.20
2023-01-18T10:28:48.733Z,1.60
2023-01-18T10:29:48.802Z,1.60
2023-01-18T10:30:48.709Z,1.80
2023-01-18T10:31:48.729Z,1.50
2023-01-18T10:32:48.673Z,1.80
2023-01-18T10:33:48.651Z,2.00
2023-01-18T10:34:48.660Z,1.80
2023-01-18T10:35:48.645Z,1.80
2023-01-18T10:36:48.618Z,1.60
2023-01-18T10:37:48.626Z,2.10
2023-01-18T10:38:48.618Z,1.60
2023-01-18T10:39:48.615Z,2.00
2023-01-18T10:40:48.615Z,1.70
2023-01-18T10:41:48.597Z,1.70
2023-01-18T10:42:48.563Z,1.60
2023-01-18T10:43:48.620Z,1.90
2023-01-18T10:44:48.539Z,2.10
2023-01-18T10:45:48.607Z,1.80
2023-01-18T10:46:48.524Z,1.90
2023-01-18T10:47:48.565Z,1.90
2023-01-18T10:48:48.527Z,2.00
2023-01-18T10:49:48.527Z,1.90
2023-01-18T10:50:48.819Z,1.90
2023-01-18T10:51:48.492Z,1.70
2023-01-18T10:52:48.476Z,1.40
2023-01-18T10:53:48.484Z,1.90
2023-01-18T10:54:48.439Z,2.00
2023-01-18T10:55:48.472Z,2.20
2023-01-18T10:56:48.455Z,3.10
2023-01-18T10:57:48.453Z,2.70
2023-01-18T10:58:48.437Z,2.00
2023-01-18T10:59:48.482Z,2.00
2023-01-18T11:00:48.444Z,2.20
2023-01-18T11:01:48.635Z,1.60
2023-01-18T11:02:48.429Z,1.40
2023-01-18T11:03:48.391Z,1.60
2023-01-18T11:04:48.347Z,1.10
2023-01-18T11:05:48.361Z,1.60
2023-01-18T11:06:48.388Z,1.50
2023-01-18T11:07:48.372Z,1.80
2023-01-18T11:08:48.330Z,1.70
2023-01-18T11:09:48.322Z,1.80
2023-01-18T11:10:48.322Z,2.00
2023-01-18T11:11:48.312Z,2.10
2023-01-18T11:12:48.305Z,1.50
2023-01-18T11:13:48.298Z,1.90
2023-01-18T11:14:48.253Z,1.60
2023-01-18T11:15:48.252Z,1.80
2023-01-18T11:16:48.244Z,1.80
2023-01-18T11:17:48.240Z,1.90
2023-01-18T11:18:48.284Z,1.70
2023-01-18T11:19:48.288Z,1.60
2023-01-18T11:20:48.239Z,1.70
2023-01-18T11:21:50.042Z,1.60
2023-01-18T11:22:48.242Z,1.90
2023-01-18T11:23:48.169Z,1.90
2023-01-18T11:24:48.153Z,1.60
2023-01-18T11:25:48.180Z,1.80
2023-01-18T11:26:48.151Z,2.00
2023-01-18T11:27:48.156Z,1.90
2023-01-18T11:28:48.142Z,2.00
2023-01-18T11:29:48.368Z,1.90
2023-01-18T11:30:48.094Z,2.30
2023-01-18T11:31:48.281Z,2.40
2023-01-18T11:32:48.079Z,2.30
2023-01-18T11:33:48.135Z,2.50
2023-01-18T11:34:48.069Z,2.00
2023-01-18T11:35:48.074Z,2.10
2023-01-18T11:36:48.081Z,2.30
2023-01-18T11:37:48.027Z,1.80
2023-01-18T11:38:48.064Z,2.20
2023-01-18T11:39:48.037Z,2.00
2023-01-18T11:40:48.024Z,1.90
2023-01-18T11:41:48.012Z,2.00
2023-01-18T11:42:48.000Z,2.20
2023-01-18T11:43:47.976Z,2.10
2023-01-18T11:44:47.953Z,2.20
2023-01-18T11:45:48.093Z,2.00
2023-01-18T11:46:47.984Z,1.80
2023-01-18T11:47:47.950Z,2.30
2023-01-18T11:48:47.942Z,2.00
2023-01-18T11:49:47.954Z,2.70
2023-01-18T11:50:47.921Z,2.60
2023-01-18T11:51:47.932Z,1.80
2023-01-18T11:52:47.928Z,2.10
2023-01-18T11:53:47.902Z,2.00
2023-01-18T11:54:47.891Z,2.00
2023-01-18T11:55:47.854Z,2.30
2023-01-18T11:56:47.854Z,2.80
2023-01-18T11:57:47.871Z,2.60
2023-01-18T11:58:47.845Z,2.30
2023-01-18T11:59:47.833Z,2.20
2023-01-18T12:00:47.864Z,2.40
2023-01-18T12:01:47.795Z,2.00
2023-01-18T12:02:47.781Z,1.80
2023-01-18T12:03:47.880Z,2.40
2023-01-18T12:04:47.782Z,2.40
2023-01-18T12:05:47.773Z,2.00
2023-01-18T12:06:47.742Z,2.00
2023-01-18T12:07:47.774Z,2.20
2023-01-18T12:08:47.752Z,2.10
2023-01-18T12:09:47.747Z,2.40
2023-01-18T12:10:47.723Z,2.20
2023-01-18T12:11:47.710Z,2.60
2023-01-18T12:12:47.696Z,2.20
2023-01-18T12:13:47.735Z,2.20
2023-01-18T12:14:47.659Z,2.00
2023-01-18T12:15:47.703Z,2.80
2023-01-18T12:16:47.707Z,2.40
2023-01-18T12:17:47.636Z,1.90
2023-01-18T12:18:47.622Z,1.90
2023-01-18T12:19:47.636Z,2.00
2023-01-18T12:20:47.738Z,2.00
2023-01-18T12:21:47.606Z,2.00
2023-01-18T12:22:47.617Z,2.10
2023-01-18T12:23:47.654Z,1.50
2023-01-18T12:24:47.584Z,2.10
2023-01-18T12:25:47.807Z,2.00
2023-01-18T12:26:47.545Z,1.60
2023-01-18T12:27:47.544Z,2.20
2023-01-18T12:28:47.552Z,1.70
2023-01-18T12:29:47.533Z,2.10
2023-01-18T12:30:47.530Z,1.80
2023-01-18T12:31:47.496Z,2.30
2023-01-18T12:32:49.606Z,1.70
2023-01-18T12:33:47.498Z,2.10
2023-01-18T12:34:47.493Z,2.30
2023-01-18T12:35:47.470Z,1.90
2023-01-18T12:36:47.461Z,2.00
2023-01-18T12:37:47.454Z,2.00
2023-01-18T12:38:47.445Z,1.90
2023-01-18T12:39:47.586Z,1.70
2023-01-18T12:40:47.418Z,1.90
2023-01-18T12:41:47.408Z,1.70
2023-01-18T12:42:47.463Z,1.50
2023-01-18T12:43:47.382Z,1.70
2023-01-18T12:44:47.375Z,1.80
2023-01-18T12:45:47.437Z,1.90
2023-01-18T12:46:47.371Z,1.90
2023-01-18T12:47:47.368Z,1.90
2023-01-18T12:48:47.340Z,1.80
2023-01-18T12:49:47.333Z,1.80
2023-01-18T12:50:47.367Z,2.20
2023-01-18T12:51:47.339Z,1.50
2023-01-18T12:52:47.296Z,2.40
2023-01-18T12:53:47.290Z,2.30
2023-01-18T12:54:47.272Z,2.20
2023-01-18T12:55:47.281Z,2.10
2023-01-18T12:56:47.276Z,2.20
2023-01-18T12:57:47.261Z,1.90
2023-01-18T12:58:47.240Z,1.80
2023-01-18T12:59:47.237Z,2.60
2023-01-18T13:00:47.339Z,2.00
2023-01-18T13:01:47.365Z,2.00
2023-01-18T13:02:47.233Z,1.60
2023-01-18T13:03:47.216Z,1.70
2023-01-18T13:04:47.259Z,1.70
2023-01-18T13:05:47.181Z,1.70
2023-01-18T13:06:47.169Z,1.70
2023-01-18T13:07:47.184Z,1.50
2023-01-18T13:08:47.137Z,1.90
2023-01-18T13:09:47.139Z,2.00
2023-01-18T13:10:47.170Z,2.50
2023-01-18T13:11:47.307Z,1.70
2023-01-18T13:12:47.124Z,1.90
2023-01-18T13:13:47.127Z,1.80
2023-01-18T13:14:47.105Z,1.80
2023-01-18T13:15:47.155Z,2.10
2023-01-18T13:16:47.225Z,1.80
2023-01-18T13:17:47.139Z,1.80
2023-01-18T13:18:47.068Z,1.80
2023-01-18T13:19:47.093Z,1.80